createdAt,value
2022-09-30T00:00:24.799Z,35.92
2022-09-30T00:02:58.338Z,36.65
2022-09-30T00:05:31.962Z,38.47
2022-09-30T00:08:06.888Z,43.20
2022-09-30T00:10:40.365Z,34.40
2022-09-30T00:13:14.750Z,38.85
2022-09-30T00:15:48.608Z,39.50
2022-09-30T00:20:56.303Z,35.28
2022-09-30T00:26:07.182Z,37.70
2022-09-30T00:28:41.560Z,35.78
2022-09-30T00:31:18.039Z,40.97
2022-09-30T00:34:05.774Z,38.20
2022-09-30T00:36:43.730Z,36.15
2022-09-30T00:39:21.046Z,37.20
2022-09-30T00:42:00.002Z,35.08
2022-09-30T00:44:51.959Z,36.13
2022-09-30T00:47:47.528Z,36.80
2022-09-30T00:50:27.651Z,35.75
2022-09-30T00:53:08.119Z,36.35
2022-09-30T00:55:50.052Z,39.30
2022-09-30T00:58:29.652Z,36.20
2022-09-30T01:01:04.485Z,35.55
2022-09-30T01:03:43.002Z,37.83
2022-09-30T01:06:16.554Z,33.05
2022-09-30T01:08:50.307Z,40.92
2022-09-30T01:11:26.333Z,38.03
2022-09-30T01:14:03.929Z,35.92
2022-09-30T01:16:51.742Z,42.30
2022-09-30T01:19:57.630Z,37.28
2022-09-30T01:22:42.461Z,37.30
2022-09-30T01:26:06.296Z,37.40
2022-09-30T01:29:18.468Z,32.03
2022-09-30T01:31:58.321Z,36.25
2022-09-30T01:34:43.283Z,37.35
2022-09-30T01:37:28.049Z,40.42
2022-09-30T01:40:06.689Z,36.03
2022-09-30T01:42:47.387Z,35.22
2022-09-30T01:45:30.780Z,38.03
2022-09-30T01:48:14.008Z,36.47
2022-09-30T01:50:53.876Z,37.47
2022-09-30T01:53:36.363Z,39.97
2022-09-30T01:56:18.763Z,36.72
2022-09-30T01:58:58.815Z,36.50
2022-09-30T02:01:39.433Z,33.05
2022-09-30T02:04:19.911Z,37.08
2022-09-30T02:06:59.517Z,34.35
2022-09-30T02:09:39.592Z,34.28
2022-09-30T02:12:17.110Z,35.28
2022-09-30T02:14:54.276Z,35.63
2022-09-30T02:17:31.198Z,31.13
2022-09-30T02:20:12.022Z,32.25
2022-09-30T02:22:50.013Z,40.17
2022-09-30T02:25:28.389Z,39.25
2022-09-30T02:28:05.384Z,37.35
2022-09-30T02:30:43.425Z,39.50
2022-09-30T02:33:21.275Z,37.80
2022-09-30T02:36:03.585Z,46.45
2022-09-30T02:38:41.782Z,37.95
2022-09-30T02:41:18.383Z,39.22
2022-09-30T02:43:59.556Z,41.90
2022-09-30T02:46:45.603Z,40.50
2022-09-30T02:49:24.723Z,40.33
2022-09-30T02:52:17.257Z,43.88
2022-09-30T02:55:01.536Z,39.25
2022-09-30T02:57:41.332Z,41.97
2022-09-30T03:00:14.872Z,39.30
2022-09-30T03:02:48.535Z,41.53
2022-09-30T03:05:22.016Z,39.35
2022-09-30T03:07:57.270Z,37.33
2022-09-30T03:10:31.495Z,39.20
2022-09-30T03:13:19.364Z,40.20
2022-09-30T03:16:13.237Z,39.92
2022-09-30T03:19:02.760Z,40.78
2022-09-30T03:21:52.983Z,41.53
2022-09-30T03:24:52.686Z,41.55
2022-09-30T03:27:33.774Z,35.10
2022-09-30T03:30:11.823Z,37.50
2022-09-30T03:33:04.322Z,45.58
2022-09-30T03:35:47.006Z,41.83
2022-09-30T03:38:30.367Z,40.83
2022-09-30T03:41:13.128Z,40.80
2022-09-30T03:43:52.110Z,45.65
2022-09-30T03:46:30.607Z,36.80
2022-09-30T03:49:09.640Z,43.88
2022-09-30T03:51:43.509Z,32.40
2022-09-30T03:56:51.922Z,32.30
2022-09-30T03:59:28.615Z,37.92
2022-09-30T04:02:03.646Z,37.38
2022-09-30T04:04:37.409Z,39.28
2022-09-30T04:07:11.721Z,35.20
2022-09-30T04:09:45.454Z,31.70
2022-09-30T04:17:26.896Z,31.10
2022-09-30T04:20:00.724Z,31.48
2022-09-30T04:22:34.218Z,33.17
2022-09-30T04:25:09.338Z,27.98
2022-09-30T04:27:44.250Z,28.63
2022-09-30T04:30:23.861Z,33.50
2022-09-30T04:32:58.644Z,30.50
2022-09-30T04:35:32.882Z,31.80
2022-09-30T04:38:07.545Z,31.90
2022-09-30T04:40:41.812Z,29.35
2022-09-30T04:43:17.841Z,33.25
2022-09-30T04:45:52.752Z,29.83
2022-09-30T04:48:28.214Z,23.88
2022-09-30T04:51:01.747Z,28.38
2022-09-30T04:53:35.314Z,29.75
2022-09-30T04:56:09.686Z,29.00
2022-09-30T04:58:45.412Z,27.90
2022-09-30T05:01:20.402Z,32.13
2022-09-30T05:03:55.645Z,28.77
2022-09-30T05:06:29.375Z,28.63
2022-09-30T05:09:02.980Z,35.33
2022-09-30T05:11:41.034Z,31.00
2022-09-30T05:14:15.920Z,28.70
2022-09-30T05:16:49.685Z,27.38
2022-09-30T05:19:23.325Z,28.55
2022-09-30T05:21:56.988Z,30.17
2022-09-30T05:24:31.189Z,33.10
2022-09-30T05:27:05.048Z,27.38
2022-09-30T05:32:13.646Z,29.52
2022-09-30T05:34:49.494Z,30.48
2022-09-30T05:37:23.273Z,37.15
2022-09-30T05:39:57.307Z,40.30
2022-09-30T05:42:33.122Z,48.95
2022-09-30T05:45:09.443Z,43.97
2022-09-30T05:47:43.026Z,56.22
2022-09-30T05:50:16.732Z,62.22
2022-09-30T05:52:50.399Z,46.72
2022-09-30T05:55:24.289Z,49.20
2022-09-30T06:00:37.381Z,47.20
2022-09-30T06:03:10.986Z,41.83
2022-09-30T06:05:47.865Z,35.53
2022-09-30T06:08:21.500Z,36.22
2022-09-30T06:10:55.155Z,34.95
2022-09-30T06:13:29.799Z,34.78
2022-09-30T06:16:15.264Z,27.10
2022-09-30T06:18:52.088Z,28.67
2022-09-30T06:21:25.704Z,37.05
2022-09-30T06:23:59.415Z,33.67
2022-09-30T06:26:33.162Z,30.40
2022-09-30T06:29:06.781Z,32.67
2022-09-30T06:31:41.869Z,33.25
2022-09-30T06:34:15.480Z,31.27
2022-09-30T06:36:49.093Z,32.90
2022-09-30T06:39:22.748Z,30.35
2022-09-30T06:41:56.604Z,31.48
2022-09-30T06:44:35.048Z,36.58
2022-09-30T06:47:22.645Z,34.88
2022-09-30T06:49:59.370Z,30.98
2022-09-30T06:52:33.153Z,36.13
2022-09-30T06:57:42.480Z,33.13
2022-09-30T07:00:16.670Z,33.55
2022-09-30T07:02:51.890Z,29.98
2022-09-30T07:05:26.681Z,34.13
2022-09-30T07:08:00.779Z,35.65
2022-09-30T07:10:34.469Z,33.22
2022-09-30T07:13:11.097Z,33.47
2022-09-30T07:15:44.715Z,34.08
2022-09-30T07:18:21.085Z,30.52
2022-09-30T07:20:56.302Z,30.98
2022-09-30T07:23:29.901Z,28.92
2022-09-30T07:26:05.733Z,32.75
2022-09-30T07:28:41.158Z,32.10
2022-09-30T07:31:32.458Z,34.33
2022-09-30T07:34:09.724Z,30.17
2022-09-30T07:36:43.410Z,32.47
2022-09-30T07:39:17.000Z,25.83
2022-09-30T07:41:50.664Z,33.50
2022-09-30T07:44:26.359Z,28.60
2022-09-30T07:47:01.399Z,35.72
2022-09-30T07:49:36.784Z,26.50
2022-09-30T07:52:12.180Z,30.92
2022-09-30T07:54:50.363Z,25.77
2022-09-30T07:57:24.670Z,25.30
2022-09-30T07:59:58.374Z,27.20
2022-09-30T08:02:31.963Z,24.55
2022-09-30T08:07:41.954Z,25.10
2022-09-30T08:10:16.028Z,25.98
2022-09-30T08:12:49.764Z,22.48
2022-09-30T08:15:23.572Z,24.02
2022-09-30T08:17:57.075Z,40.75
2022-09-30T08:20:32.063Z,25.73
2022-09-30T08:23:05.708Z,22.83
2022-09-30T08:25:39.473Z,25.30
2022-09-30T08:28:13.564Z,21.55
2022-09-30T08:30:47.135Z,24.02
2022-09-30T08:33:20.692Z,20.88
2022-09-30T08:35:55.746Z,24.35
2022-09-30T08:38:29.444Z,21.65
2022-09-30T08:41:23.516Z,24.65
2022-09-30T08:44:10.128Z,21.15
2022-09-30T08:46:49.625Z,28.35
2022-09-30T08:49:39.542Z,20.67
2022-09-30T08:52:30.205Z,21.50
2022-09-30T08:55:20.560Z,19.35
2022-09-30T08:57:56.755Z,20.93
2022-09-30T09:00:30.510Z,19.75
2022-09-30T09:05:51.738Z,17.48
2022-09-30T09:08:38.534Z,17.85
2022-09-30T09:11:20.540Z,19.42
2022-09-30T09:14:03.251Z,17.20
2022-09-30T09:16:41.325Z,14.95
2022-09-30T09:19:18.708Z,13.98
2022-09-30T09:21:57.312Z,14.73
2022-09-30T09:24:38.397Z,15.88
2022-09-30T09:27:20.356Z,15.27
2022-09-30T09:30:03.021Z,13.25
2022-09-30T09:32:36.966Z,15.02
2022-09-30T09:35:16.819Z,14.45
2022-09-30T09:38:22.941Z,15.43
2022-09-30T09:41:09.795Z,15.55
2022-09-30T09:43:53.641Z,19.42
2022-09-30T09:46:32.109Z,17.83
2022-09-30T09:49:31.705Z,22.45
2022-09-30T09:52:46.093Z,15.00
2022-09-30T09:55:23.584Z,18.52
2022-09-30T09:58:10.955Z,17.02
2022-09-30T10:01:13.943Z,13.73
2022-09-30T10:03:47.603Z,17.80
2022-09-30T10:06:23.367Z,24.63
2022-09-30T10:08:58.051Z,15.88
2022-09-30T10:11:32.369Z,14.00
2022-09-30T10:14:19.642Z,15.52
2022-09-30T10:17:01.348Z,13.32
2022-09-30T10:19:36.694Z,13.10
2022-09-30T10:22:22.091Z,13.85
2022-09-30T10:25:12.212Z,14.18
2022-09-30T10:28:02.309Z,15.52
2022-09-30T10:30:50.040Z,13.10
2022-09-30T10:33:31.622Z,14.75
2022-09-30T10:36:10.282Z,16.38
2022-09-30T10:38:53.733Z,8.38
2022-09-30T10:41:30.280Z,9.40
2022-09-30T10:44:06.901Z,13.30
2022-09-30T10:46:51.075Z,9.50
2022-09-30T10:49:29.883Z,9.30
2022-09-30T10:52:05.214Z,12.88
2022-09-30T10:54:51.791Z,8.40
2022-09-30T10:57:27.855Z,8.40
2022-09-30T11:00:06.285Z,8.57
2022-09-30T11:02:51.911Z,9.80
2022-09-30T11:05:34.227Z,12.70
2022-09-30T11:08:18.329Z,9.32
2022-09-30T11:11:05.896Z,10.80
2022-09-30T11:13:50.360Z,9.00
2022-09-30T11:16:36.132Z,9.57
2022-09-30T11:19:21.572Z,8.43
2022-09-30T11:22:03.520Z,12.73
2022-09-30T11:24:42.130Z,8.13
2022-09-30T11:27:28.343Z,7.03
2022-09-30T11:30:10.435Z,7.40
2022-09-30T11:33:15.082Z,7.97
2022-09-30T11:35:58.218Z,11.18
2022-09-30T11:38:49.938Z,10.98
2022-09-30T11:41:37.796Z,9.73
2022-09-30T11:44:25.690Z,10.70
2022-09-30T11:47:38.281Z,9.60
2022-09-30T11:50:47.457Z,10.02
2022-09-30T11:53:36.556Z,7.03
2022-09-30T11:56:27.468Z,10.93
2022-09-30T11:59:15.607Z,10.15
2022-09-30T12:01:53.756Z,9.57
2022-09-30T12:04:33.348Z,5.80
2022-09-30T12:07:21.151Z,6.93
2022-09-30T12:10:03.782Z,9.02
2022-09-30T12:12:38.384Z,5.93
2022-09-30T12:15:24.069Z,6.38
2022-09-30T12:18:03.497Z,6.88
2022-09-30T12:20:43.422Z,6.22
2022-09-30T12:23:21.662Z,6.20
2022-09-30T12:26:11.355Z,8.93
2022-09-30T12:29:14.049Z,5.40
2022-09-30T12:32:07.024Z,6.07
2022-09-30T12:35:02.210Z,11.55
2022-09-30T12:37:52.637Z,6.20
2022-09-30T12:40:41.201Z,6.40
2022-09-30T12:43:48.305Z,5.03
2022-09-30T12:46:28.904Z,7.47
2022-09-30T12:49:10.390Z,5.75
2022-09-30T12:51:46.411Z,6.25
2022-09-30T12:54:25.643Z,9.55
2022-09-30T12:57:04.002Z,9.45
2022-09-30T12:59:43.438Z,6.72
2022-09-30T13:02:34.140Z,4.85
2022-09-30T13:05:51.190Z,5.45
2022-09-30T13:08:47.528Z,5.95
2022-09-30T13:11:44.848Z,5.28
2022-09-30T13:14:32.391Z,7.35
2022-09-30T13:17:39.453Z,5.65
2022-09-30T13:20:56.757Z,8.02
2022-09-30T13:23:40.897Z,5.30
2022-09-30T13:29:37.306Z,7.78
2022-09-30T13:32:12.205Z,5.20
2022-09-30T13:35:00.881Z,5.28
2022-09-30T13:37:41.225Z,5.15
2022-09-30T13:40:37.827Z,5.40
2022-09-30T13:43:22.361Z,7.05
2022-09-30T13:45:58.965Z,7.80
2022-09-30T13:48:37.057Z,8.32
2022-09-30T13:51:16.148Z,5.28
2022-09-30T13:53:58.911Z,7.25
2022-09-30T13:56:36.221Z,5.97
2022-09-30T13:59:28.813Z,8.40
2022-09-30T14:02:24.766Z,8.30
2022-09-30T14:05:26.516Z,8.60
2022-09-30T14:08:21.516Z,8.57
2022-09-30T14:11:12.094Z,8.45
2022-09-30T14:13:56.501Z,9.23
2022-09-30T14:16:50.704Z,10.68
2022-09-30T14:22:17.002Z,10.70
2022-09-30T14:24:52.118Z,10.05
2022-09-30T14:27:37.656Z,8.93
2022-09-30T14:30:16.421Z,7.82
2022-09-30T14:32:55.909Z,7.15
2022-09-30T14:35:32.098Z,8.98
2022-09-30T14:38:09.247Z,6.72
2022-09-30T14:40:52.195Z,7.95
2022-09-30T14:43:40.343Z,18.80
2022-09-30T14:46:25.287Z,8.55
2022-09-30T14:49:04.853Z,8.88
2022-09-30T14:51:43.684Z,12.00
2022-09-30T14:54:22.239Z,12.68
2022-09-30T14:56:56.149Z,10.15
2022-09-30T14:59:33.315Z,12.20
2022-09-30T15:02:16.441Z,7.78
2022-09-30T15:04:57.030Z,8.55
2022-09-30T15:07:32.824Z,9.70
2022-09-30T15:10:07.735Z,10.95
2022-09-30T15:12:45.153Z,10.70
2022-09-30T15:15:36.460Z,9.75
2022-09-30T15:18:35.945Z,10.70
2022-09-30T15:21:13.362Z,12.77
2022-09-30T15:23:51.723Z,16.52
2022-09-30T15:26:27.983Z,14.90
2022-09-30T15:29:01.643Z,11.60
2022-09-30T15:31:36.615Z,17.08
2022-09-30T15:34:20.402Z,18.52
2022-09-30T15:37:06.608Z,16.30
2022-09-30T15:40:04.889Z,17.88
2022-09-30T15:42:43.917Z,13.90
2022-09-30T15:45:34.965Z,17.60
2022-09-30T15:48:35.317Z,18.10
2022-09-30T15:51:24.708Z,23.48
2022-09-30T15:54:00.620Z,28.35
2022-09-30T15:56:37.016Z,22.08
2022-09-30T15:59:12.804Z,17.50
2022-09-30T16:01:48.531Z,29.70
2022-09-30T16:04:27.327Z,25.60
2022-09-30T16:07:08.145Z,19.05
2022-09-30T16:09:43.252Z,21.55
2022-09-30T16:12:20.832Z,21.60
2022-09-30T16:14:56.241Z,20.80
2022-09-30T16:17:32.689Z,16.08
2022-09-30T16:20:22.003Z,18.83
2022-09-30T16:22:56.829Z,21.67
2022-09-30T16:25:33.962Z,21.13
2022-09-30T16:28:12.511Z,17.92
2022-09-30T16:30:48.889Z,19.55
2022-09-30T16:33:24.652Z,15.93
2022-09-30T16:36:07.452Z,13.20
2022-09-30T16:38:45.311Z,14.57
2022-09-30T16:41:23.092Z,14.20
2022-09-30T16:43:56.622Z,17.17
2022-09-30T16:46:30.381Z,16.95
2022-09-30T16:49:15.335Z,29.17
2022-09-30T16:51:51.252Z,18.00
2022-09-30T16:54:32.626Z,15.07
2022-09-30T16:57:07.708Z,17.45
2022-09-30T16:59:41.614Z,19.42
2022-09-30T17:02:20.401Z,19.95
2022-09-30T17:04:59.087Z,26.60
2022-09-30T17:07:39.609Z,26.38
2022-09-30T17:10:28.251Z,36.00
2022-09-30T17:13:04.901Z,32.70
2022-09-30T17:15:50.226Z,42.50
2022-09-30T17:18:25.064Z,34.47
2022-09-30T17:20:58.590Z,38.58
2022-09-30T17:23:33.614Z,47.05
2022-09-30T17:26:17.796Z,47.22
2022-09-30T17:28:53.563Z,41.33
2022-09-30T17:31:30.136Z,38.25
2022-09-30T17:34:08.096Z,36.03
2022-09-30T17:36:44.313Z,36.38
2022-09-30T17:39:19.324Z,39.85
2022-09-30T17:42:13.026Z,37.50
2022-09-30T17:44:49.877Z,41.55
2022-09-30T17:47:24.032Z,44.08
2022-09-30T17:50:04.329Z,42.05
2022-09-30T17:52:37.982Z,41.38
2022-09-30T17:55:12.903Z,40.22
2022-09-30T17:57:46.462Z,43.05
2022-09-30T18:00:20.944Z,47.72
2022-09-30T18:02:56.978Z,54.33
2022-09-30T18:05:30.811Z,47.72
2022-09-30T18:08:05.867Z,42.28
2022-09-30T18:10:42.878Z,41.38
2022-09-30T18:13:16.379Z,44.40
2022-09-30T18:15:49.908Z,47.90
2022-09-30T18:18:23.586Z,46.97
2022-09-30T18:20:57.183Z,45.35
2022-09-30T18:23:33.477Z,47.17
2022-09-30T18:26:08.582Z,45.47
2022-09-30T18:28:43.815Z,48.38
2022-09-30T18:31:28.483Z,73.22
2022-09-30T18:34:03.446Z,86.28
2022-09-30T18:36:37.466Z,93.38
2022-09-30T18:39:11.151Z,94.57
2022-09-30T18:44:20.409Z,88.53
2022-09-30T18:46:55.612Z,98.50
2022-09-30T18:49:29.307Z,100.28
2022-09-30T18:54:36.979Z,129.82
2022-09-30T18:57:12.004Z,105.03
2022-09-30T18:59:45.666Z,105.60
2022-09-30T19:02:19.504Z,102.35
2022-09-30T19:04:59.873Z,98.82
2022-09-30T19:07:35.238Z,98.10
2022-09-30T19:10:12.315Z,104.45
2022-09-30T19:12:47.318Z,110.00
2022-09-30T19:15:23.752Z,113.30
2022-09-30T19:17:57.711Z,124.70
2022-09-30T19:20:31.347Z,105.43
2022-09-30T19:25:42.832Z,72.25
2022-09-30T19:28:23.990Z,76.20
2022-09-30T19:30:57.606Z,81.85
2022-09-30T19:33:31.154Z,75.93
2022-09-30T19:36:14.390Z,69.45
2022-09-30T19:38:48.586Z,75.70
2022-09-30T19:41:24.315Z,76.93
2022-09-30T19:44:02.132Z,68.28
2022-09-30T19:46:35.775Z,64.00
2022-09-30T19:49:09.194Z,67.07
2022-09-30T19:51:42.867Z,74.88
2022-09-30T19:54:16.366Z,68.10
2022-09-30T19:56:49.948Z,73.03
2022-09-30T19:59:24.847Z,70.35
2022-09-30T20:01:58.840Z,64.15
2022-09-30T20:04:35.517Z,71.10
2022-09-30T20:07:08.977Z,66.00
2022-09-30T20:09:43.011Z,69.55
2022-09-30T20:12:19.622Z,62.20
2022-09-30T20:15:11.557Z,60.60
2022-09-30T20:17:48.323Z,64.00
2022-09-30T20:20:37.437Z,67.95
2022-09-30T20:23:10.963Z,68.30
2022-09-30T20:25:44.463Z,71.88
2022-09-30T20:28:17.980Z,71.82
2022-09-30T20:30:53.022Z,63.67
2022-09-30T20:33:27.098Z,69.65
2022-09-30T20:36:01.575Z,69.22
2022-09-30T20:41:23.684Z,69.25
2022-09-30T20:43:57.175Z,71.53
2022-09-30T20:46:32.275Z,74.80
2022-09-30T20:49:06.358Z,72.40
2022-09-30T20:51:39.865Z,69.00
2022-09-30T20:54:14.208Z,83.40
2022-09-30T20:57:06.672Z,84.80
2022-09-30T20:59:40.951Z,119.35
2022-09-30T21:02:14.514Z,56.53
2022-09-30T21:07:26.526Z,77.57
2022-09-30T21:10:00.129Z,86.93
2022-09-30T21:12:35.140Z,101.63
2022-09-30T21:15:10.264Z,89.63
2022-09-30T21:17:44.533Z,96.90
2022-09-30T21:20:18.170Z,100.07
2022-09-30T21:22:54.056Z,106.32
2022-09-30T21:25:27.672Z,106.15
2022-09-30T21:28:03.607Z,98.50
2022-09-30T21:30:41.985Z,106.68
2022-09-30T21:33:15.625Z,89.78
2022-09-30T21:35:49.266Z,97.00
2022-09-30T21:38:25.294Z,93.50
2022-09-30T21:41:01.496Z,82.32
2022-09-30T21:43:38.137Z,78.03
2022-09-30T21:46:13.575Z,76.45
2022-09-30T21:48:48.164Z,78.38
2022-09-30T21:51:30.293Z,91.25
2022-09-30T21:54:04.034Z,74.32
2022-09-30T21:56:37.706Z,72.75
2022-09-30T21:59:14.103Z,80.28
2022-09-30T22:01:51.323Z,87.15
2022-09-30T22:04:25.029Z,79.97
2022-09-30T22:09:38.527Z,79.57
2022-09-30T22:12:13.045Z,76.68
2022-09-30T22:14:48.018Z,57.28
2022-09-30T22:17:21.579Z,58.72
2022-09-30T22:19:55.755Z,59.58
2022-09-30T22:22:29.240Z,59.40
2022-09-30T22:25:02.809Z,59.47
2022-09-30T22:30:11.954Z,55.65
2022-09-30T22:32:45.699Z,58.53
2022-09-30T22:35:37.363Z,53.78
2022-09-30T22:38:17.084Z,55.65
2022-09-30T22:40:54.943Z,57.67
2022-09-30T22:43:28.788Z,52.90
2022-09-30T22:46:04.993Z,53.00
2022-09-30T22:48:38.640Z,53.72
2022-09-30T22:51:16.617Z,55.83
2022-09-30T22:53:50.191Z,57.47
2022-09-30T22:56:23.982Z,53.63
2022-09-30T23:01:32.481Z,57.95
2022-09-30T23:04:17.557Z,60.70
2022-09-30T23:06:53.914Z,55.67
2022-09-30T23:09:27.880Z,58.15
2022-09-30T23:12:01.467Z,74.65
2022-09-30T23:14:34.990Z,72.55
2022-09-30T23:17:10.060Z,74.47
2022-09-30T23:19:43.548Z,63.30
2022-09-30T23:22:18.832Z,68.47
2022-09-30T23:24:52.477Z,66.60
2022-09-30T23:27:28.611Z,63.88
2022-09-30T23:30:03.407Z,65.43
2022-09-30T23:32:40.850Z,58.05
2022-09-30T23:35:14.463Z,56.25
2022-09-30T23:37:51.631Z,54.85
2022-09-30T23:40:25.271Z,56.70
2022-09-30T23:42:58.751Z,64.80
2022-09-30T23:45:32.337Z,52.03
2022-09-30T23:48:07.302Z,49.05
2022-09-30T23:50:41.347Z,46.95
2022-09-30T23:53:14.823Z,52.03
2022-09-30T23:55:55.729Z,50.22
2022-09-30T23:58:29.293Z,57.75
